Time;durP1;ratioP1;P1;durP2;ratioP2;P2;SDS_P1;SDS_P2;PMS_P1;PMS_P2;Temp;Humidity;BMP_temperature;BMP_pressure;BME280_temperature;BME280_humidity;BME280_pressure;Samples;Min_cycle;Max_cycle;Signal;HPM_P1;HPM_P2
2022/01/10 00:00:55;;;;;;;;;;;18.40;61.10;;;;;;5091248;28;20384;-76
2022/01/10 00:03:22;;;;;;;;;;;18.40;61.10;;;;;;5090757;28;19915;-75
2022/01/10 00:05:48;;;;;;;;;;;18.40;61.10;;;;;;5089899;28;19908;-76
2022/01/10 00:08:14;;;;;;;;;;;18.40;61.10;;;;;;5089827;28;19915;-76
2022/01/10 00:10:40;;;;;;;;;;;18.40;61.10;;;;;;5091027;28;20376;-76
2022/01/10 00:13:06;;;;;;;;;;;18.40;61.10;;;;;;5091130;28;19958;-76
2022/01/10 00:15:31;;;;;;;;;;;18.40;61.10;;;;;;5091925;28;20340;-76
2022/01/10 00:17:57;;;;;;;;;;;18.40;61.00;;;;;;5090375;28;20391;-76
2022/01/10 00:20:22;;;;;;;;;;;18.40;61.10;;;;;;5091025;28;20199;-76
2022/01/10 00:22:49;;;;;;;;;;;18.40;61.00;;;;;;5090978;28;20272;-76
2022/01/10 00:25:16;;;;;;;;;;;18.40;61.00;;;;;;5090717;28;19908;-76
2022/01/10 00:27:42;;;;;;;;;;;18.40;61.00;;;;;;5090870;28;19953;-77
2022/01/10 00:30:10;;;;;;;;;;;18.40;61.00;;;;;;5089382;28;20016;-76
2022/01/10 00:32:35;;;;;;;;;;;18.30;61.00;;;;;;5090111;28;19999;-76
2022/01/10 00:35:01;;;;;;;;;;;18.30;61.00;;;;;;5090867;28;20343;-76
2022/01/10 00:37:26;;;;;;;;;;;18.40;61.00;;;;;;5090419;28;20010;-76
2022/01/10 00:39:52;;;;;;;;;;;18.30;60.90;;;;;;5090567;28;19908;-76
2022/01/10 00:42:17;;;;;;;;;;;18.30;60.90;;;;;;5090531;28;19931;-76
2022/01/10 00:44:51;;;;;;;;;;;18.30;61.00;;;;;;5090475;28;19915;-76
2022/01/10 00:47:17;;;;;;;;;;;18.30;61.00;;;;;;5089896;28;19915;-76
2022/01/10 00:49:42;;;;;;;;;;;18.30;60.90;;;;;;5090407;28;19908;-76
2022/01/10 00:52:08;;;;;;;;;;;18.30;61.00;;;;;;5090174;28;19927;-76
2022/01/10 00:54:34;;;;;;;;;;;18.30;61.00;;;;;;5091107;28;19969;-76
2022/01/10 00:56:59;;;;;;;;;;;18.30;61.00;;;;;;5090249;28;19919;-76
2022/01/10 00:59:25;;;;;;;;;;;18.30;61.00;;;;;;5090274;28;20110;-76
2022/01/10 01:01:50;;;;;;;;;;;18.30;61.00;;;;;;5089575;28;19908;-75
2022/01/10 01:04:16;;;;;;;;;;;18.30;61.10;;;;;;5090032;28;19914;-76
2022/01/10 01:06:42;;;;;;;;;;;18.30;61.00;;;;;;5090138;28;19908;-76
2022/01/10 01:09:10;;;;;;;;;;;18.20;61.00;;;;;;5089962;28;20329;-76
2022/01/10 01:14:10;;;;;;;;;;;18.30;61.10;;;;;;5090054;28;20380;-76
2022/01/10 01:24:28;;;;;;;;;;;18.30;61.00;;;;;;5089943;28;20366;-76
2022/01/10 01:26:53;;;;;;;;;;;18.30;61.00;;;;;;5088499;28;19908;-76
2022/01/10 01:29:22;;;;;;;;;;;18.30;61.00;;;;;;5089798;28;19908;-76
2022/01/10 01:31:48;;;;;;;;;;;18.40;61.00;;;;;;5089015;28;19920;-76
2022/01/10 01:34:14;;;;;;;;;;;18.40;60.90;;;;;;5089628;28;19908;-76
2022/01/10 01:36:41;;;;;;;;;;;18.40;60.90;;;;;;5089661;28;20006;-76
2022/01/10 01:39:17;;;;;;;;;;;18.40;60.90;;;;;;5089838;28;19915;-76
2022/01/10 01:41:43;;;;;;;;;;;18.40;60.90;;;;;;5089533;28;19961;-76
2022/01/10 01:44:09;;;;;;;;;;;18.40;60.90;;;;;;5089584;28;19908;-76
2022/01/10 01:46:36;;;;;;;;;;;18.50;60.90;;;;;;5089498;28;20376;-76
2022/01/10 01:49:02;;;;;;;;;;;18.50;60.90;;;;;;5089499;28;19908;-76
2022/01/10 01:51:27;;;;;;;;;;;18.50;60.90;;;;;;5089007;28;19943;-76
2022/01/10 01:53:53;;;;;;;;;;;18.50;60.90;;;;;;5087943;28;19908;-76
2022/01/10 01:56:19;;;;;;;;;;;18.50;60.80;;;;;;5088939;28;19915;-76
2022/01/10 01:58:45;;;;;;;;;;;18.50;60.80;;;;;;5089455;28;19923;-76
2022/01/10 02:01:11;;;;;;;;;;;18.60;60.90;;;;;;5088744;28;19912;-76
2022/01/10 02:03:38;;;;;;;;;;;18.60;60.80;;;;;;5090265;28;19923;-76
2022/01/10 02:06:07;;;;;;;;;;;18.60;60.90;;;;;;5090059;28;20287;-76
2022/01/10 02:08:33;;;;;;;;;;;18.60;60.70;;;;;;5089987;28;19915;-76
2022/01/10 02:10:59;;;;;;;;;;;18.60;60.70;;;;;;5089246;28;19977;-76
2022/01/10 02:13:26;;;;;;;;;;;18.60;60.70;;;;;;5089259;28;20318;-76
2022/01/10 02:16:04;;;;;;;;;;;18.60;60.70;;;;;;5088738;28;20368;-76
2022/01/10 02:18:29;;;;;;;;;;;18.60;60.70;;;;;;5089182;28;20388;-76
2022/01/10 02:21:00;;;;;;;;;;;18.70;60.70;;;;;;5089225;28;19934;-75
2022/01/10 02:23:27;;;;;;;;;;;18.70;60.80;;;;;;5089242;28;19915;-76
2022/01/10 02:25:53;;;;;;;;;;;18.70;60.70;;;;;;5089132;28;19916;-76
2022/01/10 02:28:19;;;;;;;;;;;18.70;60.70;;;;;;5089019;28;20321;-76
2022/01/10 02:30:44;;;;;;;;;;;18.80;60.70;;;;;;5088573;28;19909;-76
2022/01/10 02:33:10;;;;;;;;;;;18.80;60.70;;;;;;5089170;28;19916;-76
2022/01/10 02:35:44;;;;;;;;;;;18.80;60.60;;;;;;5089742;28;20368;-76
2022/01/10 02:38:09;;;;;;;;;;;18.80;60.60;;;;;;5089133;28;19908;-75
2022/01/10 02:40:35;;;;;;;;;;;18.90;60.70;;;;;;5089821;28;19908;-75
2022/01/10 02:43:01;;;;;;;;;;;18.90;60.60;;;;;;5088949;28;19908;-76
2022/01/10 02:45:27;;;;;;;;;;;18.90;60.60;;;;;;5088393;28;19995;-76
2022/01/10 02:47:53;;;;;;;;;;;18.90;60.60;;;;;;5089048;28;20453;-76
2022/01/10 02:50:19;;;;;;;;;;;19.00;60.60;;;;;;5088997;28;19923;-76
2022/01/10 02:52:45;;;;;;;;;;;19.00;60.60;;;;;;5088866;28;19924;-76
2022/01/10 02:55:11;;;;;;;;;;;19.00;60.60;;;;;;5088871;28;19953;-76
2022/01/10 02:57:37;;;;;;;;;;;19.00;60.50;;;;;;5089783;28;19912;-76
2022/01/10 03:00:05;;;;;;;;;;;19.00;60.50;;;;;;5090925;28;20295;-75
2022/01/10 03:02:33;;;;;;;;;;;19.10;60.50;;;;;;5092433;28;19908;-76
2022/01/10 03:04:59;;;;;;;;;;;19.10;60.50;;;;;;5092337;28;19955;-76
2022/01/10 03:07:25;;;;;;;;;;;19.10;60.60;;;;;;5092387;28;19962;-76
2022/01/10 03:09:51;;;;;;;;;;;19.10;60.40;;;;;;5092341;28;19915;-76
2022/01/10 03:12:17;;;;;;;;;;;19.20;60.50;;;;;;5092310;28;19922;-76
2022/01/10 03:14:43;;;;;;;;;;;19.10;60.40;;;;;;5066791;28;20415;-76
2022/01/10 03:17:10;;;;;;;;;;;19.10;60.30;;;;;;5052600;28;19999;-76
2022/01/10 03:19:39;;;;;;;;;;;19.10;60.20;;;;;;5052766;28;20392;-76
2022/01/10 03:22:05;;;;;;;;;;;19.20;60.30;;;;;;5051831;28;20388;-76
2022/01/10 03:24:31;;;;;;;;;;;19.20;60.30;;;;;;5051886;28;20191;-76
2022/01/10 03:26:56;;;;;;;;;;;19.20;60.30;;;;;;5051783;28;20385;-76
2022/01/10 03:29:22;;;;;;;;;;;19.20;60.30;;;;;;5051908;28;20281;-76
2022/01/10 03:31:47;;;;;;;;;;;19.20;60.30;;;;;;5051542;28;19928;-76
2022/01/10 03:34:13;;;;;;;;;;;19.30;60.30;;;;;;5051579;28;19913;-76
2022/01/10 03:36:39;;;;;;;;;;;19.30;60.30;;;;;;5052460;28;20436;-76
2022/01/10 03:39:05;;;;;;;;;;;19.30;60.30;;;;;;5033682;28;20331;-76
2022/01/10 03:41:30;;;;;;;;;;;19.30;60.20;;;;;;5051510;28;19967;-76
2022/01/10 03:43:56;;;;;;;;;;;19.30;60.20;;;;;;5050074;28;20368;-76
2022/01/10 03:46:22;;;;;;;;;;;19.30;60.10;;;;;;5051424;28;19916;-75
2022/01/10 03:48:47;;;;;;;;;;;19.30;60.10;;;;;;5051376;28;19913;-75
2022/01/10 03:51:13;;;;;;;;;;;19.30;60.10;;;;;;5058730;28;19994;-74
2022/01/10 03:53:38;;;;;;;;;;;19.30;60.10;;;;;;5072065;28;19916;-76
2022/01/10 03:56:04;;;;;;;;;;;19.30;60.10;;;;;;5077544;28;20384;-75
2022/01/10 03:58:30;;;;;;;;;;;19.40;60.10;;;;;;5097275;28;20417;-76
2022/01/10 04:00:55;;;;;;;;;;;19.40;60.10;;;;;;5104120;28;19912;-75
2022/01/10 04:03:21;;;;;;;;;;;19.40;60.10;;;;;;5089662;28;19909;-77
2022/01/10 04:05:46;;;;;;;;;;;19.40;60.10;;;;;;5091213;28;19954;-78
2022/01/10 04:08:12;;;;;;;;;;;19.40;60.10;;;;;;5091166;28;20357;-75
2022/01/10 04:10:38;;;;;;;;;;;19.40;60.10;;;;;;5091129;28;19912;-77
2022/01/10 04:13:03;;;;;;;;;;;19.40;60.00;;;;;;5091004;28;20399;-76
2022/01/10 04:15:29;;;;;;;;;;;19.50;60.00;;;;;;5090152;28;20003;-77
2022/01/10 04:17:56;;;;;;;;;;;19.50;60.00;;;;;;5089716;28;19912;-76
2022/01/10 04:20:23;;;;;;;;;;;19.50;60.10;;;;;;5090863;28;20002;-77
2022/01/10 04:22:48;;;;;;;;;;;19.50;60.20;;;;;;5090677;28;19915;-77
2022/01/10 04:25:14;;;;;;;;;;;19.50;60.10;;;;;;5090126;28;19908;-78
2022/01/10 04:27:40;;;;;;;;;;;19.10;60.00;;;;;;5091779;28;19908;-79
2022/01/10 04:30:05;;;;;;;;;;;19.50;60.20;;;;;;5090418;28;19955;-77
2022/01/10 04:32:32;;;;;;;;;;;19.60;60.20;;;;;;5090747;28;19920;-77
2022/01/10 04:34:58;;;;;;;;;;;19.60;60.20;;;;;;5090483;28;20383;-77
2022/01/10 04:37:24;;;;;;;;;;;19.60;60.10;;;;;;5090576;28;19908;-76
2022/01/10 04:39:50;;;;;;;;;;;19.60;60.10;;;;;;5090553;28;19960;-76
2022/01/10 04:42:15;;;;;;;;;;;19.70;60.10;;;;;;5091154;28;19908;-77
2022/01/10 04:44:41;;;;;;;;;;;19.70;60.10;;;;;;5095845;28;19918;-79
2022/01/10 04:47:07;;;;;;;;;;;19.70;60.00;;;;;;5110710;28;19922;-79
2022/01/10 04:49:54;;;;;;;;;;;19.70;60.10;;;;;;5110819;28;19908;-78
2022/01/10 04:52:19;;;;;;;;;;;19.70;60.10;;;;;;5110290;28;19919;-77
2022/01/10 04:54:44;;;;;;;;;;;19.70;60.00;;;;;;5110098;28;19915;-77
2022/01/10 04:57:10;;;;;;;;;;;19.70;59.90;;;;;;5101343;28;19912;-76
2022/01/10 04:59:35;;;;;;;;;;;19.70;59.90;;;;;;5089642;28;20383;-76
2022/01/10 05:02:01;;;;;;;;;;;19.70;59.90;;;;;;5089885;28;19915;-76
2022/01/10 05:04:26;;;;;;;;;;;19.70;59.80;;;;;;5090070;28;19915;-76
2022/01/10 05:06:52;;;;;;;;;;;19.70;59.70;;;;;;5090139;28;20010;-77
2022/01/10 05:09:17;;;;;;;;;;;19.70;59.70;;;;;;5088634;28;20022;-75
2022/01/10 05:11:43;;;;;;;;;;;19.70;59.70;;;;;;5090325;28;20389;-78
2022/01/10 05:14:08;;;;;;;;;;;19.70;59.70;;;;;;5089851;28;19909;-76
2022/01/10 05:16:34;;;;;;;;;;;19.70;59.60;;;;;;5089035;28;19966;-78
2022/01/10 05:19:00;;;;;;;;;;;19.70;60.50;;;;;;5088296;28;19959;-77
2022/01/10 05:21:25;;;;;;;;;;;19.70;59.50;;;;;;5089376;28;19908;-76
2022/01/10 05:23:51;;;;;;;;;;;19.70;59.60;;;;;;5088364;28;19915;-77
2022/01/10 05:26:16;;;;;;;;;;;19.70;59.60;;;;;;5090562;28;19908;-76
2022/01/10 05:28:42;;;;;;;;;;;19.70;59.50;;;;;;5089823;28;19908;-77
2022/01/10 05:31:07;;;;;;;;;;;19.70;59.50;;;;;;5089612;28;20303;-76
2022/01/10 05:33:33;;;;;;;;;;;19.70;59.50;;;;;;5089570;28;20411;-77
2022/01/10 05:35:58;;;;;;;;;;;19.60;59.50;;;;;;5089612;28;20030;-77
2022/01/10 05:38:24;;;;;;;;;;;19.70;59.50;;;;;;5089671;28;19908;-76
2022/01/10 05:40:49;;;;;;;;;;;19.60;59.40;;;;;;5089656;28;20077;-75
2022/01/10 05:43:15;;;;;;;;;;;19.60;59.40;;;;;;5090374;28;19955;-77
2022/01/10 05:45:44;;;;;;;;;;;19.60;59.40;;;;;;5089584;28;19999;-77
2022/01/10 05:48:13;;;;;;;;;;;19.60;59.40;;;;;;5089493;28;19909;-77
2022/01/10 05:50:42;;;;;;;;;;;19.60;59.40;;;;;;5089388;28;20140;-76
2022/01/10 05:53:08;;;;;;;;;;;19.60;59.40;;;;;;5089478;28;19916;-76
2022/01/10 05:55:36;;;;;;;;;;;19.60;59.30;;;;;;5089494;28;19919;-76
2022/01/10 05:58:02;;;;;;;;;;;19.60;59.30;;;;;;5089421;28;19915;-76
2022/01/10 06:00:28;;;;;;;;;;;19.60;59.30;;;;;;5089362;28;19912;-77
2022/01/10 06:02:53;;;;;;;;;;;19.50;59.20;;;;;;5089503;28;19954;-77
2022/01/10 06:05:19;;;;;;;;;;;19.50;59.20;;;;;;5090180;28;19908;-76
2022/01/10 06:07:45;;;;;;;;;;;19.50;59.30;;;;;;5090264;28;19934;-77
2022/01/10 06:10:11;;;;;;;;;;;19.50;59.20;;;;;;5089257;28;19912;-76
2022/01/10 06:12:36;;;;;;;;;;;19.50;59.20;;;;;;5089234;28;20007;-77
2022/01/10 06:15:02;;;;;;;;;;;19.50;59.20;;;;;;5089278;28;19908;-76
2022/01/10 06:17:28;;;;;;;;;;;19.50;59.20;;;;;;5089264;28;20280;-77
2022/01/10 06:19:53;;;;;;;;;;;19.50;59.20;;;;;;5089214;28;20322;-76
2022/01/10 06:22:19;;;;;;;;;;;19.50;59.20;;;;;;5090158;28;19908;-76
2022/01/10 06:24:44;;;;;;;;;;;19.50;59.20;;;;;;5089146;28;19909;-76
2022/01/10 06:27:10;;;;;;;;;;;19.50;59.20;;;;;;5089205;28;20679;-76
2022/01/10 06:29:35;;;;;;;;;;;19.50;59.20;;;;;;5089133;28;19908;-77
2022/01/10 06:32:01;;;;;;;;;;;19.50;59.20;;;;;;5088640;28;20430;-77
2022/01/10 06:34:26;;;;;;;;;;;19.50;59.20;;;;;;5091347;28;19948;-76
2022/01/10 06:36:53;;;;;;;;;;;19.50;59.20;;;;;;5093156;28;19947;-76
2022/01/10 06:39:18;;;;;;;;;;;19.50;59.20;;;;;;5093795;28;19912;-77
2022/01/10 06:41:44;;;;;;;;;;;19.50;59.20;;;;;;5093248;28;19915;-77
2022/01/10 06:44:09;;;;;;;;;;;19.40;59.10;;;;;;5092947;28;19908;-77
2022/01/10 06:46:35;;;;;;;;;;;19.60;58.10;;;;;;5092786;28;19908;-89
2022/01/10 06:49:00;;;;;;;;;;;19.70;58.70;;;;;;5092344;28;19907;-87
2022/01/10 06:51:26;;;;;;;;;;;19.70;58.20;;;;;;5092538;28;19949;-85
2022/01/10 06:53:52;;;;;;;;;;;19.70;58.10;;;;;;5092861;28;19908;-83
2022/01/10 06:56:17;;;;;;;;;;;19.70;58.30;;;;;;5093218;28;19915;-85
2022/01/10 06:58:43;;;;;;;;;;;19.60;58.60;;;;;;5091565;28;19912;-81
2022/01/10 07:01:08;;;;;;;;;;;19.60;58.80;;;;;;5090866;28;19920;-83
2022/01/10 07:03:34;;;;;;;;;;;19.60;58.80;;;;;;5091047;28;19916;-86
2022/01/10 07:05:59;;;;;;;;;;;19.60;58.90;;;;;;5091032;28;20353;-86
2022/01/10 07:08:25;;;;;;;;;;;19.70;59.00;;;;;;5091070;28;19926;-86
2022/01/10 07:10:50;;;;;;;;;;;19.60;58.80;;;;;;5091778;28;20399;-83
2022/01/10 07:13:16;;;;;;;;;;;19.70;59.00;;;;;;5092143;28;20032;-82
2022/01/10 07:15:41;;;;;;;;;;;19.70;59.00;;;;;;5092074;28;20121;-83
2022/01/10 07:18:07;;;;;;;;;;;19.70;58.80;;;;;;5092135;28;19925;-86
2022/01/10 07:20:33;;;;;;;;;;;19.70;58.90;;;;;;5091746;28;19908;-86
2022/01/10 07:22:58;;;;;;;;;;;19.70;58.90;;;;;;5092193;28;20109;-86
2022/01/10 07:25:24;;;;;;;;;;;19.70;58.90;;;;;;5091822;28;19909;-84
2022/01/10 07:27:49;;;;;;;;;;;19.70;58.90;;;;;;5092769;28;19916;-86
2022/01/10 07:30:15;;;;;;;;;;;19.70;58.90;;;;;;5092052;28;19977;-85
2022/01/10 07:32:40;;;;;;;;;;;19.60;58.80;;;;;;5085551;28;19951;-80
2022/01/10 07:35:06;;;;;;;;;;;19.70;58.80;;;;;;5089298;28;19915;-80
2022/01/10 07:37:32;;;;;;;;;;;19.60;58.80;;;;;;5091440;28;19931;-81
2022/01/10 07:39:57;;;;;;;;;;;19.60;58.90;;;;;;5091643;28;19998;-81
2022/01/10 07:42:23;;;;;;;;;;;19.60;58.80;;;;;;5092623;28;19934;-81
2022/01/10 07:44:48;;;;;;;;;;;19.60;58.90;;;;;;5091057;28;19908;-82
2022/01/10 07:47:14;;;;;;;;;;;19.50;58.90;;;;;;5091484;28;20380;-82
2022/01/10 07:49:39;;;;;;;;;;;19.50;58.90;;;;;;5091571;28;20325;-81
2022/01/10 07:52:05;;;;;;;;;;;19.50;58.90;;;;;;5091249;28;19946;-86
2022/01/10 07:54:30;;;;;;;;;;;19.50;59.00;;;;;;5090793;28;19957;-80
2022/01/10 07:56:56;;;;;;;;;;;19.50;59.10;;;;;;5091362;28;20002;-81
2022/01/10 07:59:22;;;;;;;;;;;19.50;59.20;;;;;;5090450;28;19975;-80
2022/01/10 08:01:48;;;;;;;;;;;19.50;59.20;;;;;;5091285;28;19939;-81
2022/01/10 08:04:14;;;;;;;;;;;19.40;59.10;;;;;;5090916;28;20363;-80
2022/01/10 08:06:39;;;;;;;;;;;19.40;59.10;;;;;;5090959;28;19908;-80
2022/01/10 08:09:06;;;;;;;;;;;19.40;59.10;;;;;;5090711;28;19984;-82
2022/01/10 08:11:32;;;;;;;;;;;19.40;59.20;;;;;;5090428;28;19959;-80
2022/01/10 08:13:57;;;;;;;;;;;19.40;59.10;;;;;;5090868;28;20005;-81
2022/01/10 08:16:23;;;;;;;;;;;19.30;59.10;;;;;;5091548;28;20576;-80
2022/01/10 08:18:48;;;;;;;;;;;19.30;59.10;;;;;;5089374;28;19908;-83
2022/01/10 08:21:14;;;;;;;;;;;19.30;59.10;;;;;;5090840;28;19952;-85
2022/01/10 08:23:39;;;;;;;;;;;19.30;59.40;;;;;;5090586;28;20780;-84
2022/01/10 08:26:08;;;;;;;;;;;19.30;59.10;;;;;;5090134;28;19916;-85
2022/01/10 08:28:37;;;;;;;;;;;19.20;59.20;;;;;;5089473;28;19908;-82
2022/01/10 08:31:03;;;;;;;;;;;19.20;59.10;;;;;;5090202;28;19954;-82
2022/01/10 08:33:28;;;;;;;;;;;19.20;59.10;;;;;;5090291;28;19908;-81
2022/01/10 08:35:54;;;;;;;;;;;19.20;59.20;;;;;;5091133;28;19908;-82
2022/01/10 08:38:20;;;;;;;;;;;19.20;59.20;;;;;;5090304;28;19912;-83
2022/01/10 08:40:45;;;;;;;;;;;19.20;59.10;;;;;;5090338;28;19950;-82
2022/01/10 08:43:11;;;;;;;;;;;19.10;59.20;;;;;;5090552;28;19915;-82
2022/01/10 08:45:40;;;;;;;;;;;19.10;59.10;;;;;;5089722;28;20007;-82
2022/01/10 08:48:06;;;;;;;;;;;19.10;59.10;;;;;;5075968;28;19928;-78
2022/01/10 08:50:33;;;;;;;;;;;19.10;59.20;;;;;;5083022;28;19916;-84
2022/01/10 08:52:59;;;;;;;;;;;19.10;59.20;;;;;;5085095;28;19933;-83
2022/01/10 08:55:25;;;;;;;;;;;19.10;59.20;;;;;;5088368;28;20380;-83
2022/01/10 08:57:50;;;;;;;;;;;19.10;59.20;;;;;;5088719;28;19908;-84
2022/01/10 09:00:16;;;;;;;;;;;19.10;59.20;;;;;;5088171;28;20376;-83
2022/01/10 09:02:41;;;;;;;;;;;19.00;59.10;;;;;;5090008;28;20436;-84
2022/01/10 09:05:08;;;;;;;;;;;19.00;59.20;;;;;;5088088;28;19912;-82
2022/01/10 09:07:33;;;;;;;;;;;19.00;59.20;;;;;;5089487;28;19952;-82
2022/01/10 09:09:59;;;;;;;;;;;19.00;59.30;;;;;;5089936;28;20295;-81
2022/01/10 09:12:24;;;;;;;;;;;19.00;59.10;;;;;;5089060;28;19955;-82
2022/01/10 09:14:50;;;;;;;;;;;19.00;59.20;;;;;;5089407;28;19961;-83
2022/01/10 09:17:15;;;;;;;;;;;18.90;59.30;;;;;;5089461;28;19959;-82
2022/01/10 09:19:41;;;;;;;;;;;19.00;59.20;;;;;;5089605;28;20283;-84
2022/01/10 09:22:06;;;;;;;;;;;19.00;59.20;;;;;;5089819;28;19912;-83
2022/01/10 09:24:32;;;;;;;;;;;19.00;59.20;;;;;;5089870;28;19915;-83
2022/01/10 09:26:57;;;;;;;;;;;18.90;59.30;;;;;;5090081;28;19950;-82
2022/01/10 09:29:24;;;;;;;;;;;18.90;59.20;;;;;;5089741;28;19958;-83
2022/01/10 09:31:49;;;;;;;;;;;18.90;59.30;;;;;;5089501;28;19931;-83
2022/01/10 09:34:15;;;;;;;;;;;18.90;59.40;;;;;;5089047;28;19908;-84
2022/01/10 09:36:40;;;;;;;;;;;18.90;59.50;;;;;;5089162;28;19908;-84
2022/01/10 09:39:06;;;;;;;;;;;18.90;59.30;;;;;;5089352;28;19915;-84
2022/01/10 09:41:31;;;;;;;;;;;18.90;59.70;;;;;;5089629;28;19915;-85
2022/01/10 09:44:01;;;;;;;;;;;18.90;59.50;;;;;;5090435;28;19916;-82
2022/01/10 09:46:27;;;;;;;;;;;18.80;59.30;;;;;;5089978;28;19909;-82
2022/01/10 09:48:53;;;;;;;;;;;18.90;59.30;;;;;;5089370;28;19945;-79
2022/01/10 09:51:19;;;;;;;;;;;18.80;59.30;;;;;;5089061;28;19963;-84
2022/01/10 09:53:45;;;;;;;;;;;18.80;59.40;;;;;;5088992;28;20385;-82
2022/01/10 09:56:11;;;;;;;;;;;18.80;59.40;;;;;;5088790;28;19908;-83
2022/01/10 09:58:36;;;;;;;;;;;18.80;59.40;;;;;;5070874;28;19908;-83
2022/01/10 10:01:02;;;;;;;;;;;18.80;59.50;;;;;;5088849;28;19908;-83
2022/01/10 10:03:28;;;;;;;;;;;18.80;59.40;;;;;;5089216;28;19919;-82
2022/01/10 10:05:54;;;;;;;;;;;18.80;59.50;;;;;;5088842;28;20007;-82
2022/01/10 10:08:24;;;;;;;;;;;18.70;59.40;;;;;;5091164;28;20220;-86
2022/01/10 10:10:50;;;;;;;;;;;18.80;59.50;;;;;;5093028;28;19916;-82
2022/01/10 10:13:16;;;;;;;;;;;18.80;59.60;;;;;;5092788;28;19920;-81
2022/01/10 10:15:44;;;;;;;;;;;18.70;59.50;;;;;;5092488;28;19985;-80
2022/01/10 10:18:10;;;;;;;;;;;18.70;59.50;;;;;;5074373;28;19908;-82
2022/01/10 10:20:36;;;;;;;;;;;18.70;60.00;;;;;;5072691;28;19909;-84
2022/01/10 10:23:03;;;;;;;;;;;18.70;59.50;;;;;;5072889;28;19916;-82
2022/01/10 10:25:28;;;;;;;;;;;18.70;59.50;;;;;;5073157;28;19920;-87
2022/01/10 10:27:56;;;;;;;;;;;18.70;59.70;;;;;;5072341;28;19909;-84
2022/01/10 10:30:26;;;;;;;;;;;18.70;59.50;;;;;;5075258;28;19912;-83
2022/01/10 10:32:52;;;;;;;;;;;18.70;59.50;;;;;;5092518;28;20009;-84
2022/01/10 10:35:17;;;;;;;;;;;18.70;59.60;;;;;;5088241;28;20406;-82
2022/01/10 10:37:43;;;;;;;;;;;18.70;59.60;;;;;;5071712;28;20046;-84
2022/01/10 10:40:12;;;;;;;;;;;18.70;59.60;;;;;;5072010;28;19913;-82
2022/01/10 10:42:38;;;;;;;;;;;18.70;59.50;;;;;;5054093;28;19915;-86
2022/01/10 10:45:08;;;;;;;;;;;18.70;59.60;;;;;;5053316;28;19923;-82
2022/01/10 10:47:40;;;;;;;;;;;18.70;59.50;;;;;;5053503;28;20006;-86
2022/01/10 10:50:07;;;;;;;;;;;18.70;59.50;;;;;;5072049;28;19915;-82
2022/01/10 10:52:33;;;;;;;;;;;18.70;59.50;;;;;;5090736;28;19920;-82
2022/01/10 10:55:06;;;;;;;;;;;18.70;59.50;;;;;;5092827;28;19962;-80
2022/01/10 10:57:32;;;;;;;;;;;18.70;59.60;;;;;;5092263;28;19931;-80
2022/01/10 11:00:04;;;;;;;;;;;18.60;59.60;;;;;;5093042;28;20789;-82
2022/01/10 11:02:29;;;;;;;;;;;18.70;59.60;;;;;;5092924;28;19909;-83
2022/01/10 11:04:55;;;;;;;;;;;18.70;59.80;;;;;;5091523;28;20006;-84
2022/01/10 11:07:27;;;;;;;;;;;18.60;59.60;;;;;;5091911;28;20003;-83
2022/01/10 11:09:53;;;;;;;;;;;18.70;59.80;;;;;;5091860;28;20164;-82
2022/01/10 11:12:22;;;;;;;;;;;18.60;59.90;;;;;;5091859;28;20293;-82
2022/01/10 11:14:48;;;;;;;;;;;18.60;59.60;;;;;;5091985;28;20354;-83
2022/01/10 11:17:18;;;;;;;;;;;18.60;59.70;;;;;;5091286;28;19909;-83
2022/01/10 11:19:44;;;;;;;;;;;18.60;59.60;;;;;;5089877;28;19953;-80
2022/01/10 11:22:11;;;;;;;;;;;18.60;59.90;;;;;;5092851;28;19908;-82
2022/01/10 11:24:44;;;;;;;;;;;18.60;59.90;;;;;;5095130;28;20264;-82
2022/01/10 11:27:27;;;;;;;;;;;18.60;59.70;;;;;;5093496;28;20006;-80
2022/01/10 11:29:55;;;;;;;;;;;18.60;59.70;;;;;;5090283;28;19912;-81
2022/01/10 11:32:20;;;;;;;;;;;18.60;59.90;;;;;;5091230;28;19916;-80
2022/01/10 11:34:46;;;;;;;;;;;18.60;60.00;;;;;;5091444;28;19908;-81
2022/01/10 11:37:12;;;;;;;;;;;18.70;60.00;;;;;;5091412;28;19960;-80
2022/01/10 11:39:37;;;;;;;;;;;18.70;60.00;;;;;;5091481;28;20011;-82
2022/01/10 11:42:19;;;;;;;;;;;18.70;60.10;;;;;;5092359;28;20256;-81
2022/01/10 11:45:04;;;;;;;;;;;18.70;60.10;;;;;;5091391;28;19909;-81
2022/01/10 11:47:30;;;;;;;;;;;18.80;60.10;;;;;;5084641;28;20540;-85
2022/01/10 11:50:34;;;;;;;;;;;18.80;60.10;;;;;;5090200;28;19962;-82
2022/01/10 11:53:01;;;;;;;;;;;18.80;60.10;;;;;;5049613;28;20361;-80
2022/01/10 11:55:31;;;;;;;;;;;18.80;60.10;;;;;;5049080;28;19999;-80
2022/01/10 11:58:14;;;;;;;;;;;18.80;60.10;;;;;;5070107;28;19961;-81
2022/01/10 12:00:39;;;;;;;;;;;18.80;60.10;;;;;;5091526;28;20406;-81
2022/01/10 12:03:05;;;;;;;;;;;18.80;60.00;;;;;;5092024;28;19909;-82
2022/01/10 12:05:31;;;;;;;;;;;18.90;60.00;;;;;;5091933;28;19908;-81
2022/01/10 12:07:56;;;;;;;;;;;18.90;60.00;;;;;;5088636;28;19908;-82
2022/01/10 12:10:22;;;;;;;;;;;18.90;60.00;;;;;;5089284;28;19908;-83
2022/01/10 12:12:51;;;;;;;;;;;18.90;60.00;;;;;;5090689;28;20383;-82
2022/01/10 12:15:16;;;;;;;;;;;18.90;60.00;;;;;;5091161;28;20387;-82
2022/01/10 12:17:42;;;;;;;;;;;18.90;60.00;;;;;;5090833;28;19981;-82
2022/01/10 12:20:08;;;;;;;;;;;18.90;59.90;;;;;;5091135;28;19908;-79
2022/01/10 12:22:34;;;;;;;;;;;18.90;59.90;;;;;;5091547;28;19923;-83
2022/01/10 12:25:01;;;;;;;;;;;18.90;60.00;;;;;;5089420;28;19930;-81
2022/01/10 12:27:27;;;;;;;;;;;18.90;60.00;;;;;;5090993;28;20229;-84
2022/01/10 12:29:52;;;;;;;;;;;19.00;60.10;;;;;;5086048;28;19931;-84
2022/01/10 12:32:18;;;;;;;;;;;19.00;60.00;;;;;;5089475;28;19939;-85
2022/01/10 12:34:45;;;;;;;;;;;19.00;60.10;;;;;;5090627;28;19908;-83
2022/01/10 12:37:11;;;;;;;;;;;19.00;60.10;;;;;;5090703;28;19914;-81
2022/01/10 12:39:38;;;;;;;;;;;19.00;60.10;;;;;;5091202;28;19912;-80
2022/01/10 12:42:03;;;;;;;;;;;19.00;60.10;;;;;;5091040;28;19908;-81
2022/01/10 12:44:29;;;;;;;;;;;19.00;60.30;;;;;;5089621;28;20028;-80
2022/01/10 12:46:55;;;;;;;;;;;19.10;60.30;;;;;;5090278;28;19912;-81
2022/01/10 12:49:21;;;;;;;;;;;19.10;60.20;;;;;;5090370;28;19912;-81
2022/01/10 12:51:46;;;;;;;;;;;19.10;60.30;;;;;;5090260;28;19920;-80
2022/01/10 12:54:19;;;;;;;;;;;19.10;60.30;;;;;;5089740;28;19930;-84
2022/01/10 12:56:45;;;;;;;;;;;19.10;60.40;;;;;;5088994;28;19916;-82
2022/01/10 12:59:15;;;;;;;;;;;19.20;60.60;;;;;;5088912;28;19908;-80
2022/01/10 13:01:41;;;;;;;;;;;19.20;60.70;;;;;;5089763;28;19923;-85
2022/01/10 13:04:07;;;;;;;;;;;19.10;60.50;;;;;;5090647;28;19908;-80
2022/01/10 13:06:34;;;;;;;;;;;19.10;60.50;;;;;;5088412;28;19974;-81
2022/01/10 13:09:00;;;;;;;;;;;19.10;60.50;;;;;;5089847;28;19948;-81
2022/01/10 13:11:32;;;;;;;;;;;19.10;60.60;;;;;;5089866;28;19912;-80
2022/01/10 13:14:07;;;;;;;;;;;19.10;60.60;;;;;;5089334;28;19914;-80
2022/01/10 13:16:33;;;;;;;;;;;19.10;60.60;;;;;;5089978;28;20295;-80
2022/01/10 13:19:00;;;;;;;;;;;19.10;60.80;;;;;;5089888;28;20011;-81
2022/01/10 13:21:31;;;;;;;;;;;19.00;60.60;;;;;;5089635;28;19915;-82
2022/01/10 13:24:17;;;;;;;;;;;19.00;60.80;;;;;;5089739;28;19908;-81
2022/01/10 13:27:01;;;;;;;;;;;19.00;60.80;;;;;;5086837;28;19908;-79
2022/01/10 13:29:35;;;;;;;;;;;19.00;60.80;;;;;;5069642;28;19909;-81
2022/01/10 13:45:42;;;;;;;;;;;19.00;60.20;;;;;;5066400;28;19913;-82
2022/01/10 13:48:08;;;;;;;;;;;19.10;60.90;;;;;;5066074;28;19925;-81
2022/01/10 13:50:34;;;;;;;;;;;19.10;60.80;;;;;;5066483;28;19999;-80
2022/01/10 13:53:01;;;;;;;;;;;19.10;60.90;;;;;;5065688;28;20066;-81
2022/01/10 13:55:26;;;;;;;;;;;19.10;60.80;;;;;;5066381;28;19999;-81
2022/01/10 13:57:52;;;;;;;;;;;19.10;60.70;;;;;;5065969;28;19963;-82
2022/01/10 14:00:18;;;;;;;;;;;19.10;60.80;;;;;;5063797;28;19912;-84
2022/01/10 14:02:44;;;;;;;;;;;19.10;60.70;;;;;;5067184;28;19952;-81
2022/01/10 14:05:26;;;;;;;;;;;19.10;60.70;;;;;;5065856;28;19962;-82
2022/01/10 14:07:52;;;;;;;;;;;19.10;60.70;;;;;;5064765;28;19935;-81
2022/01/10 14:10:18;;;;;;;;;;;19.10;60.70;;;;;;5066118;28;19982;-81
2022/01/10 14:12:44;;;;;;;;;;;19.20;60.80;;;;;;5065418;28;19975;-81
2022/01/10 14:15:10;;;;;;;;;;;19.10;60.80;;;;;;5065694;28;19909;-81
2022/01/10 14:17:35;;;;;;;;;;;19.20;60.70;;;;;;5065764;28;19915;-80
2022/01/10 14:20:01;;;;;;;;;;;19.20;60.70;;;;;;5065691;28;19915;-82
2022/01/10 14:22:26;;;;;;;;;;;19.10;60.60;;;;;;5065899;28;20425;-82
2022/01/10 14:24:52;;;;;;;;;;;19.10;60.60;;;;;;5065573;28;19948;-82
2022/01/10 14:27:17;;;;;;;;;;;19.10;60.60;;;;;;5064207;28;19919;-82
2022/01/10 14:29:43;;;;;;;;;;;19.20;60.70;;;;;;5066082;28;20360;-82
2022/01/10 14:32:09;;;;;;;;;;;19.20;60.70;;;;;;5065158;28;19913;-81
2022/01/10 14:34:35;;;;;;;;;;;19.20;60.60;;;;;;5065166;28;19954;-82
2022/01/10 14:37:01;;;;;;;;;;;19.20;60.60;;;;;;5065224;28;19909;-81